Tambon Khok Khian, Thailand

2:25 PM ICT on September 04, 2015 (GMT +0700)
Narathiwat | | Change Station
CLOSE
Current Station
Airport
Location: Narathiwat,
Elevation: 16 ft
Nearby Weather Stations

Elev 16 ft 6.43 °N, 101.82 °E | Updated 25 minutes ago

Scattered Clouds
Scattered Clouds
90 °F
Feels Like 115 °F
N
9
Wind Variable Wind from NE

Today
High -- | Low -- °F
--% Chance of Precip.
Yesterday
High -- | Low -- °F
Precip. -- in
6:05 AM 6:18 PM
Waning Gibbous, 62% visible
Pressure 29.86 in
Visibility 5.6 miles
Clouds Few 2000 ft
Scattered Clouds 2200 ft
Heat Index 115 °F
Dew Point 84 °F
Humidity 84%
Rainfall 0.00 in
Snow Depth Not available.
UV 11 out of 12
Pollen Not available.
Air Quality Not available.
Flu Activity Not available.
METAR VTSC 040700Z 04008KT 360V070 9000 FEW020TCU SCT022 32/29 Q1011 A2985 RWY20 INFO G
Pressure 29.86 in
Visibility 5.6 miles
Clouds Few 2000 ft
Scattered Clouds 2200 ft
Heat Index 115 °F
Dew Point 84 °F
Humidity 84%
Rainfall 0.00 in
Snow Depth Not available.
UV 11 out of 12
Pollen Not available.
Air Quality Not available.
Flu Activity Not available.
METAR VTSC 040700Z 04008KT 360V070 9000 FEW020TCU SCT022 32/29 Q1011 A2985 RWY20 INFO G

10-Day Weather Forecast

×

Almanac

Astronomy

Sep. 04, 2015 Rise Set
Actual Time
Civil Twilight
Nautical Twilight
Astronomical Twilight
Moon
Length of Visible Light
Length of Day
Tomorrow will be .
, % of the Moon is Illuminated

Today's Extremes

Country Highs Country Lows

Community

WunderPhotos

Upload Photos

1,852,132 photos uploaded!

WunderBlogs® & News

Nearby

Air Quality

  Air Quality AQ Index Pollutant
Not available.

Snow Depth

Station Depth Elevation

Earthquake Activity

City Distance Mag. Time & Date
Minimum magnitude displayed is 2.5.

Coastal Water Temperatures

Place Temperature

Stations

Nearby Weather Stations

Station Location Temp. Windchill Dew Point Humidity Wind Precip. Elev Updated Type